createdAt,value
2023-02-07T00:01:19.986Z,98919.53
2023-02-07T00:03:46.453Z,98916.91
2023-02-07T00:06:27.254Z,98912.59
2023-02-07T00:08:53.878Z,98924.59
2023-02-07T00:11:20.780Z,98952.09
2023-02-07T00:13:48.412Z,98978.72
2023-02-07T00:16:15.337Z,98980.41
2023-02-07T00:18:41.786Z,98978.66
2023-02-07T00:21:09.946Z,98976.06
2023-02-07T00:23:36.830Z,99000.97
2023-02-07T00:26:03.727Z,99043.88
2023-02-07T00:28:30.319Z,99080.69
2023-02-07T00:31:11.165Z,99085.84
2023-02-07T00:33:38.456Z,99096.16
2023-02-07T00:36:06.340Z,99138.16
2023-02-07T00:38:32.883Z,99171.69
2023-02-07T00:41:01.362Z,99204.25
2023-02-07T00:43:30.286Z,99248.03
2023-02-07T00:46:01.221Z,99305.50
2023-02-07T00:48:28.311Z,99326.09
2023-02-07T00:50:54.748Z,99369.81
2023-02-07T00:53:21.348Z,99404.19
2023-02-07T00:55:47.714Z,99439.41
2023-02-07T00:58:14.083Z,99458.25
2023-02-07T01:00:40.673Z,99457.41
2023-02-07T01:03:07.025Z,99452.25
2023-02-07T01:05:33.380Z,99441.94
2023-02-07T01:07:59.795Z,99449.72
2023-02-07T01:10:26.149Z,99465.19
2023-02-07T01:12:52.776Z,99476.34
2023-02-07T01:15:19.456Z,99502.06
2023-02-07T01:17:45.899Z,99518.38
2023-02-07T01:20:12.363Z,99506.38
2023-02-07T01:22:39.300Z,99502.09
2023-02-07T01:25:06.635Z,99497.81
2023-02-07T01:27:33.364Z,99502.09
2023-02-07T01:29:59.769Z,99499.53
2023-02-07T01:32:26.274Z,99496.94
2023-02-07T01:34:52.623Z,99505.53
2023-02-07T01:37:19.246Z,99513.25
2023-02-07T01:39:46.996Z,99515.81
2023-02-07T01:42:14.371Z,99516.69
2023-02-07T01:44:43.762Z,99526.09
2023-02-07T01:47:15.008Z,99538.94
2023-02-07T01:49:41.349Z,99540.66
2023-02-07T01:52:12.753Z,99518.31
2023-02-07T01:54:39.825Z,99461.78
2023-02-07T01:57:07.950Z,99430.97
2023-02-07T01:59:35.858Z,99430.94
2023-02-07T02:02:02.893Z,99435.22
2023-02-07T02:04:29.248Z,99445.50
2023-02-07T02:06:56.007Z,99449.75
2023-02-07T02:09:22.613Z,99437.78
2023-02-07T02:12:08.071Z,99448.06
2023-02-07T02:15:08.669Z,99454.03
2023-02-07T02:17:54.929Z,99444.63
2023-02-07T02:20:55.557Z,99415.50
2023-02-07T02:23:37.377Z,99412.06
2023-02-07T02:26:37.518Z,99401.78
2023-02-07T02:29:04.426Z,99371.81
2023-02-07T02:31:53.069Z,99355.56
2023-02-07T02:34:31.754Z,99325.56
2023-02-07T02:37:10.390Z,99293.91
2023-02-07T02:39:42.574Z,99298.19
2023-02-07T02:42:34.790Z,99284.50
2023-02-07T02:45:03.808Z,99275.94
2023-02-07T02:47:30.639Z,99275.06
2023-02-07T02:49:57.028Z,99259.69
2023-02-07T02:52:23.714Z,99242.56
2023-02-07T02:54:50.043Z,99237.44
2023-02-07T02:57:28.684Z,99260.50
2023-02-07T03:00:21.903Z,99268.22
2023-02-07T03:03:10.504Z,99290.47
2023-02-07T03:05:49.130Z,99268.22
2023-02-07T03:08:34.434Z,99237.41
2023-02-07T03:11:07.771Z,99251.09
2023-02-07T03:13:40.334Z,99282.78
2023-02-07T03:16:30.963Z,99300.72
2023-02-07T03:19:02.270Z,99322.94
2023-02-07T03:21:33.892Z,99328.94
2023-02-07T03:24:03.812Z,99315.25
2023-02-07T03:26:30.188Z,99317.81
2023-02-07T03:28:56.698Z,99342.63
2023-02-07T03:31:24.070Z,99361.41
2023-02-07T03:33:53.045Z,99379.34
2023-02-07T03:36:25.117Z,99410.13
2023-02-07T03:38:51.498Z,99434.03
2023-02-07T03:41:29.855Z,99430.63
2023-02-07T03:43:56.268Z,99458.81
2023-02-07T03:46:23.122Z,99471.59
2023-02-07T03:48:49.567Z,99472.44
2023-02-07T03:51:15.938Z,99514.28
2023-02-07T03:53:42.285Z,99524.50
2023-02-07T03:56:08.911Z,99547.56
2023-02-07T03:58:35.277Z,99493.72
2023-02-07T04:01:01.651Z,99444.16
2023-02-07T04:03:28.233Z,99420.22
2023-02-07T04:05:54.705Z,99421.06
2023-02-07T04:08:21.083Z,99423.63
2023-02-07T04:10:57.408Z,99433.84
2023-02-07T04:13:23.774Z,99456.06
2023-02-07T04:15:50.177Z,99474.81
2023-02-07T04:18:16.832Z,99492.72
2023-02-07T04:20:43.306Z,99490.16
2023-02-07T04:23:09.689Z,99508.06
2023-02-07T04:25:36.370Z,99506.31
2023-02-07T04:28:02.905Z,99505.50
2023-02-07T04:30:29.313Z,99507.16
2023-02-07T04:32:55.704Z,99543.84
2023-02-07T04:35:22.053Z,99560.88
2023-02-07T04:37:48.441Z,99565.94
2023-02-07T04:40:14.857Z,99544.63
2023-02-07T04:42:41.202Z,99525.84
2023-02-07T04:45:08.019Z,99507.91
2023-02-07T04:47:34.583Z,99529.19
2023-02-07T04:50:01.027Z,99528.34
2023-02-07T04:52:27.376Z,99532.63
2023-02-07T04:54:53.754Z,99559.91
2023-02-07T04:57:20.086Z,99583.75
2023-02-07T04:59:46.446Z,99603.38
2023-02-07T05:02:13.021Z,99582.06
2023-02-07T05:04:39.383Z,99573.50
2023-02-07T05:07:05.782Z,99563.28
2023-02-07T05:09:32.187Z,99509.56
2023-02-07T05:11:58.645Z,99513.78
2023-02-07T05:14:25.182Z,99541.06
2023-02-07T05:16:51.823Z,99565.03
2023-02-07T05:19:18.251Z,99580.34
2023-02-07T05:21:44.598Z,99612.75
2023-02-07T05:24:10.967Z,99615.31
2023-02-07T05:26:39.374Z,99634.78
2023-02-07T05:29:06.644Z,99619.31
2023-02-07T05:31:52.016Z,99600.56
2023-02-07T05:34:18.408Z,99609.06
2023-02-07T05:36:44.762Z,99630.38
2023-02-07T05:39:11.341Z,99636.38
2023-02-07T05:41:37.689Z,99646.63
2023-02-07T05:44:04.045Z,99652.59
2023-02-07T05:46:30.572Z,99661.91
2023-02-07T05:48:56.928Z,99689.16
2023-02-07T05:51:23.357Z,99716.47
2023-02-07T05:53:50.278Z,99719.91
2023-02-07T05:56:16.631Z,99707.16
2023-02-07T05:58:42.996Z,99730.09
2023-02-07T06:01:09.546Z,99717.06
2023-02-07T06:03:35.918Z,99651.50
2023-02-07T06:06:02.297Z,99625.09
2023-02-07T06:08:28.707Z,99600.38
2023-02-07T06:10:55.078Z,99581.69
2023-02-07T06:13:21.430Z,99603.00
2023-02-07T06:15:48.255Z,99638.75
2023-02-07T06:18:14.629Z,99670.28
2023-02-07T06:20:40.970Z,99697.63
2023-02-07T06:23:07.342Z,99718.03
2023-02-07T06:25:33.702Z,99724.84
2023-02-07T06:28:00.797Z,99745.31
2023-02-07T06:30:27.241Z,99769.19
2023-02-07T06:32:53.623Z,99779.44
2023-02-07T06:35:20.125Z,99787.06
2023-02-07T06:37:46.770Z,99798.13
2023-02-07T06:40:13.116Z,99838.16
2023-02-07T06:42:39.490Z,99857.69
2023-02-07T06:45:06.138Z,99867.03
2023-02-07T06:47:32.490Z,99860.28
2023-02-07T06:49:58.887Z,99856.03
2023-02-07T06:52:25.453Z,99862.81
2023-02-07T06:54:51.794Z,99884.97
2023-02-07T06:57:18.160Z,99892.56
2023-02-07T06:59:44.612Z,99896.84
2023-02-07T07:02:12.084Z,99888.38
2023-02-07T07:04:38.459Z,99878.16
2023-02-07T07:07:05.145Z,99874.72
2023-02-07T07:09:31.547Z,99855.16
2023-02-07T07:11:58.251Z,99867.03
2023-02-07T07:14:24.910Z,99871.25
2023-02-07T07:16:51.506Z,99871.25
2023-02-07T07:19:17.865Z,99871.22
2023-02-07T07:21:44.476Z,99876.28
2023-02-07T07:24:10.838Z,99869.47
2023-02-07T07:26:48.832Z,99821.84
2023-02-07T07:29:16.164Z,99794.63
2023-02-07T07:31:42.542Z,99783.59
2023-02-07T07:34:08.923Z,99769.97
2023-02-07T07:36:35.499Z,99753.81
2023-02-07T07:39:01.939Z,99745.28
2023-02-07T07:41:28.323Z,99729.94
2023-02-07T07:43:55.378Z,99702.75
2023-02-07T07:46:21.824Z,99695.06
2023-02-07T07:48:48.243Z,99684.91
2023-02-07T07:51:14.840Z,99675.56
2023-02-07T07:53:41.182Z,99646.63
2023-02-07T07:56:07.517Z,99616.84
2023-02-07T07:58:33.939Z,99596.38
2023-02-07T08:01:00.396Z,99557.19
2023-02-07T08:03:27.088Z,99523.09
2023-02-07T08:05:53.564Z,99465.09
2023-02-07T08:08:20.000Z,99405.38
2023-02-07T08:10:46.744Z,99355.03
2023-02-07T08:13:13.199Z,99327.75
2023-02-07T08:15:39.577Z,99311.53
2023-02-07T08:18:06.166Z,99288.50
2023-02-07T08:20:32.902Z,99276.56
2023-02-07T08:22:59.321Z,99264.66
2023-02-07T08:25:26.390Z,99245.88
2023-02-07T08:27:53.378Z,99243.28
2023-02-07T08:30:19.939Z,99207.41
2023-02-07T08:32:46.415Z,99186.06
2023-02-07T08:35:13.089Z,99169.81
2023-02-07T08:37:39.562Z,99143.31
2023-02-07T08:40:06.422Z,99127.94
2023-02-07T08:42:33.092Z,99114.28
2023-02-07T08:44:59.535Z,99085.19
2023-02-07T08:47:25.909Z,99062.94
2023-02-07T08:49:52.320Z,99037.28
2023-02-07T08:52:18.763Z,98997.06
2023-02-07T08:54:45.134Z,98973.97
2023-02-07T08:57:11.710Z,98964.50
2023-02-07T08:59:38.052Z,99000.38
2023-02-07T09:02:04.634Z,99022.59
2023-02-07T09:04:31.046Z,99049.97
2023-02-07T09:06:57.643Z,99075.66
2023-02-07T09:09:25.091Z,99125.28
2023-02-07T09:11:51.462Z,99218.56
2023-02-07T09:14:18.148Z,99287.91
2023-02-07T09:16:44.606Z,99380.41
2023-02-07T09:19:11.197Z,99490.06
2023-02-07T09:21:37.652Z,99568.03
2023-02-07T09:24:04.575Z,99653.69
2023-02-07T09:26:33.167Z,99737.72
2023-02-07T09:28:59.651Z,99789.13
2023-02-07T09:31:26.152Z,99828.63
2023-02-07T09:33:52.632Z,99877.53
2023-02-07T09:36:24.358Z,99883.56
2023-02-07T09:38:51.569Z,99944.47
2023-02-07T09:41:34.008Z,99989.91
2023-02-07T09:44:25.727Z,100110.00
2023-02-07T09:46:52.518Z,100195.78
2023-02-07T09:49:28.122Z,100273.91
2023-02-07T09:51:56.528Z,100371.69
2023-02-07T09:54:29.044Z,100470.34
2023-02-07T09:56:57.071Z,100548.44
2023-02-07T09:59:27.072Z,100587.09
2023-02-07T10:01:55.943Z,100546.00
2023-02-07T10:04:30.445Z,100567.53
2023-02-07T10:06:58.004Z,100557.31
2023-02-07T10:09:29.428Z,100542.81
2023-02-07T10:12:39.339Z,100628.66
2023-02-07T10:15:32.536Z,100706.03
2023-02-07T10:18:17.581Z,100772.25
2023-02-07T10:20:51.644Z,100723.56
2023-02-07T10:23:45.399Z,100723.56
2023-02-07T10:26:21.848Z,100864.44
2023-02-07T10:29:10.007Z,100921.16
2023-02-07T10:31:38.429Z,100931.50
2023-02-07T10:34:27.588Z,100943.56
2023-02-07T10:36:54.419Z,100980.63
2023-02-07T10:39:33.320Z,101007.41
2023-02-07T10:41:59.715Z,101024.75
2023-02-07T10:44:28.534Z,101048.91
2023-02-07T10:47:02.505Z,101114.38
2023-02-07T10:49:31.667Z,101052.63
2023-02-07T10:52:21.812Z,101009.78
2023-02-07T10:55:02.137Z,101054.69
2023-02-07T10:57:29.065Z,101059.97
2023-02-07T11:00:04.699Z,101097.09
2023-02-07T11:02:31.669Z,101126.50
2023-02-07T11:04:59.665Z,101142.13
2023-02-07T11:07:26.212Z,101141.50
2023-02-07T11:09:52.767Z,101146.66
2023-02-07T11:12:25.237Z,101132.94
2023-02-07T11:15:05.918Z,101199.13
2023-02-07T11:17:32.307Z,101280.91
2023-02-07T11:20:03.016Z,101401.56
2023-02-07T11:22:29.447Z,101419.13
2023-02-07T11:25:02.038Z,101381.38
2023-02-07T11:27:28.387Z,101426.13
2023-02-07T11:30:07.405Z,101512.25
2023-02-07T11:32:36.185Z,101578.31
2023-02-07T11:35:09.318Z,101659.63
2023-02-07T11:37:37.033Z,101695.00
2023-02-07T11:40:23.765Z,101687.25
2023-02-07T11:42:57.693Z,101731.88
2023-02-07T11:45:24.123Z,101720.25
2023-02-07T11:47:54.046Z,101713.38
2023-02-07T11:50:22.439Z,101732.41
2023-02-07T11:52:56.696Z,101709.16
2023-02-07T11:55:29.944Z,101704.88
2023-02-07T11:57:57.616Z,101650.06
2023-02-07T12:00:26.096Z,101638.22
2023-02-07T12:02:59.471Z,101631.56
2023-02-07T12:05:28.312Z,101677.50
2023-02-07T12:07:58.913Z,101639.50
2023-02-07T12:10:28.577Z,101664.44
2023-02-07T12:13:03.327Z,101664.34
2023-02-07T12:15:44.334Z,101606.66
2023-02-07T12:18:10.668Z,101505.13
2023-02-07T12:20:39.921Z,101559.47
2023-02-07T12:23:39.264Z,101598.31
2023-02-07T12:25:58.243Z,101630.34
2023-02-07T12:28:32.985Z,101642.53
2023-02-07T12:31:02.210Z,101585.75
2023-02-07T12:33:38.261Z,101582.38
2023-02-07T12:36:33.096Z,101518.72
2023-02-07T12:39:06.878Z,101527.59
2023-02-07T12:41:39.822Z,101547.63
2023-02-07T12:44:26.179Z,101546.06
2023-02-07T12:47:01.086Z,101646.59
2023-02-07T12:49:36.592Z,101696.91
2023-02-07T12:52:19.782Z,101641.13
2023-02-07T12:54:50.611Z,101652.53
2023-02-07T12:57:46.395Z,101640.38
2023-02-07T13:00:28.004Z,101611.72
2023-02-07T13:03:18.750Z,101592.22
2023-02-07T13:05:54.396Z,101525.00
2023-02-07T13:08:35.738Z,101559.63
2023-02-07T13:11:17.720Z,101603.72
2023-02-07T13:14:06.626Z,101585.84
2023-02-07T13:17:03.374Z,101615.31
2023-02-07T13:19:39.627Z,101654.56
2023-02-07T13:22:24.220Z,101696.38
2023-02-07T13:24:50.581Z,101700.63
2023-02-07T13:27:18.784Z,101723.00
2023-02-07T13:29:45.425Z,101692.63
2023-02-07T13:32:15.304Z,101707.25
2023-02-07T13:34:58.260Z,101734.69
2023-02-07T13:37:45.937Z,101729.81
2023-02-07T13:40:31.145Z,101672.88
2023-02-07T13:43:02.956Z,101577.84
2023-02-07T13:45:55.770Z,101593.28
2023-02-07T13:48:40.851Z,101656.38
2023-02-07T13:51:18.316Z,101660.59
2023-02-07T13:54:09.364Z,101624.69
2023-02-07T13:56:54.954Z,101653.94
2023-02-07T13:59:40.121Z,101607.25
2023-02-07T14:02:18.462Z,101586.44
2023-02-07T14:04:50.892Z,101622.66
2023-02-07T14:07:32.015Z,101652.03
2023-02-07T14:09:58.952Z,101655.53
2023-02-07T14:12:29.928Z,101752.25
2023-02-07T14:15:03.597Z,101841.41
2023-02-07T14:17:30.308Z,101953.72
2023-02-07T14:19:57.547Z,101998.16
2023-02-07T14:22:28.074Z,101973.63
2023-02-07T14:25:03.557Z,101961.91
2023-02-07T14:27:32.950Z,101923.97
2023-02-07T14:30:11.638Z,101865.59
2023-02-07T14:32:38.672Z,101755.38
2023-02-07T14:35:38.259Z,101633.22
2023-02-07T14:38:04.585Z,101570.94
2023-02-07T14:40:43.343Z,101567.31
2023-02-07T14:43:12.808Z,101576.75
2023-02-07T14:45:45.476Z,101556.63
2023-02-07T14:48:32.852Z,101490.06
2023-02-07T14:50:59.451Z,101469.22
2023-02-07T14:53:26.253Z,101437.97
2023-02-07T14:55:56.549Z,101437.00
2023-02-07T14:58:42.902Z,101432.66
2023-02-07T15:01:13.638Z,101413.72
2023-02-07T15:03:40.061Z,101421.31
2023-02-07T15:06:31.604Z,101405.75
2023-02-07T15:09:00.137Z,101404.78
2023-02-07T15:11:27.388Z,101422.75
2023-02-07T15:14:02.900Z,101457.03
2023-02-07T15:16:31.323Z,101459.41
2023-02-07T15:19:07.902Z,101519.72
2023-02-07T15:21:38.868Z,101603.16
2023-02-07T15:24:07.435Z,101614.81
2023-02-07T15:26:34.497Z,101556.13
2023-02-07T15:29:06.068Z,101467.03
2023-02-07T15:31:39.894Z,101365.34
2023-02-07T15:34:08.510Z,101276.50
2023-02-07T15:36:40.596Z,101213.59
2023-02-07T15:39:13.230Z,101164.34
2023-02-07T15:41:39.604Z,101083.25
2023-02-07T15:44:07.791Z,101020.22
2023-02-07T15:46:55.448Z,100963.28
2023-02-07T15:49:35.345Z,100939.09
2023-02-07T15:52:04.833Z,100957.97
2023-02-07T15:54:34.884Z,100971.63
2023-02-07T15:57:01.725Z,100964.59
2023-02-07T15:59:29.101Z,100950.56
2023-02-07T16:01:57.032Z,100922.94
2023-02-07T16:04:27.124Z,100895.34
2023-02-07T16:07:01.455Z,100882.19
2023-02-07T16:09:41.736Z,100853.69
2023-02-07T16:12:31.090Z,100817.41
2023-02-07T16:14:58.833Z,100800.00
2023-02-07T16:17:35.858Z,100780.97
2023-02-07T16:20:02.216Z,100764.50
2023-02-07T16:22:29.875Z,100767.84
2023-02-07T16:24:56.229Z,100751.41
2023-02-07T16:27:31.556Z,100741.84
2023-02-07T16:30:01.174Z,100694.47
2023-02-07T16:32:30.026Z,100638.63
2023-02-07T16:34:59.980Z,100593.03
2023-02-07T16:37:27.815Z,100514.03
2023-02-07T16:39:54.213Z,100448.81
2023-02-07T16:42:20.590Z,100415.41
2023-02-07T16:44:47.067Z,100400.81
2023-02-07T16:47:13.923Z,100405.13
2023-02-07T16:49:40.401Z,100436.88
2023-02-07T16:52:06.784Z,100437.78
2023-02-07T16:54:33.151Z,100454.09
2023-02-07T16:57:01.455Z,100468.63
2023-02-07T16:59:29.068Z,100477.97
2023-02-07T17:01:55.457Z,100479.59
2023-02-07T17:04:22.036Z,100485.53
2023-02-07T17:06:48.395Z,100510.38
2023-02-07T17:09:24.775Z,100527.41
2023-02-07T17:11:52.116Z,100536.88
2023-02-07T17:14:18.650Z,100588.44
2023-02-07T17:16:45.134Z,100651.13
2023-02-07T17:19:26.369Z,100682.03
2023-02-07T17:21:52.873Z,100705.09
2023-02-07T17:24:19.363Z,100700.72
2023-02-07T17:26:47.360Z,100698.94
2023-02-07T17:29:14.508Z,100698.81
2023-02-07T17:31:41.276Z,100660.94
2023-02-07T17:34:07.767Z,100623.13
2023-02-07T17:36:34.332Z,100598.16
2023-02-07T17:39:01.063Z,100568.13
2023-02-07T17:41:27.521Z,100556.03
2023-02-07T17:43:53.923Z,100502.88
2023-02-07T17:46:25.530Z,100458.97
2023-02-07T17:48:51.931Z,100409.19
2023-02-07T17:51:19.747Z,100359.50
2023-02-07T17:53:46.679Z,100338.03
2023-02-07T17:56:27.433Z,100298.59
2023-02-07T17:58:54.797Z,100279.75
2023-02-07T18:01:21.639Z,100275.41
2023-02-07T18:03:48.689Z,100277.06
2023-02-07T18:06:16.110Z,100264.16
2023-02-07T18:08:42.778Z,100248.69
2023-02-07T18:11:11.468Z,100212.66
2023-02-07T18:13:38.576Z,100200.63
2023-02-07T18:16:05.685Z,100202.25
2023-02-07T18:18:32.075Z,100190.16
2023-02-07T18:20:58.436Z,100173.00
2023-02-07T18:23:24.814Z,100147.25
2023-02-07T18:25:51.351Z,100107.81
2023-02-07T18:28:18.173Z,100087.16
2023-02-07T18:30:44.755Z,100052.84
2023-02-07T18:33:13.362Z,100009.97
2023-02-07T18:35:39.798Z,99938.09
2023-02-07T18:38:06.227Z,99873.00
2023-02-07T18:40:32.586Z,99810.47
2023-02-07T18:42:58.947Z,99768.47
2023-02-07T18:45:25.336Z,99747.06
2023-02-07T18:47:52.159Z,99730.78
2023-02-07T18:50:19.711Z,99704.22
2023-02-07T18:52:47.210Z,99675.94
2023-02-07T18:55:13.669Z,99678.50
2023-02-07T18:57:40.024Z,99689.63
2023-02-07T19:00:07.419Z,99682.72
2023-02-07T19:02:33.811Z,99645.84
2023-02-07T19:05:00.477Z,99622.69
2023-02-07T19:07:26.863Z,99546.53
2023-02-07T19:09:53.297Z,99531.09
2023-02-07T19:12:19.655Z,99511.41
2023-02-07T19:14:46.076Z,99496.00
2023-02-07T19:17:13.927Z,99490.88
2023-02-07T19:19:40.279Z,99511.41
2023-02-07T19:22:06.635Z,99520.78
2023-02-07T19:24:33.069Z,99513.94
2023-02-07T19:26:59.467Z,99512.22
2023-02-07T19:29:30.614Z,99509.66
2023-02-07T19:32:02.166Z,99519.94
2023-02-07T19:34:29.011Z,99521.63
2023-02-07T19:36:55.485Z,99526.75
2023-02-07T19:39:22.113Z,99501.06
2023-02-07T19:41:48.650Z,99481.38
2023-02-07T19:44:15.010Z,99456.53
2023-02-07T19:46:41.444Z,99417.19
2023-02-07T19:49:07.823Z,99356.41
2023-02-07T19:51:34.233Z,99335.00
2023-02-07T19:54:00.709Z,99352.13
2023-02-07T19:56:28.538Z,99323.00
2023-02-07T19:58:55.284Z,99323.00
2023-02-07T20:01:22.461Z,99333.28
2023-02-07T20:03:51.056Z,99355.50
2023-02-07T20:06:22.517Z,99328.97
2023-02-07T20:08:49.173Z,99314.44
2023-02-07T20:11:16.711Z,99304.16
2023-02-07T20:13:44.960Z,99252.81
2023-02-07T20:16:15.975Z,99196.38
2023-02-07T20:18:42.518Z,99167.25
2023-02-07T20:21:11.987Z,99155.31
2023-02-07T20:23:46.710Z,99124.50
2023-02-07T20:26:15.199Z,99086.88
2023-02-07T20:28:41.807Z,99031.25
2023-02-07T20:31:09.148Z,98971.31
2023-02-07T20:33:36.268Z,98935.38
2023-02-07T20:36:03.015Z,98892.56
2023-02-07T20:38:29.464Z,98873.78
2023-02-07T20:40:57.347Z,98850.69
2023-02-07T20:43:24.124Z,98798.47
2023-02-07T20:45:50.503Z,98797.66
2023-02-07T20:48:16.966Z,98808.81
2023-02-07T20:50:43.367Z,98823.38
2023-02-07T20:53:09.942Z,98837.91
2023-02-07T20:55:36.609Z,98851.63
2023-02-07T20:58:02.984Z,98879.00
2023-02-07T21:00:29.435Z,98857.56
2023-02-07T21:02:55.891Z,98876.41
2023-02-07T21:05:22.256Z,98915.75
2023-02-07T21:07:48.660Z,98951.69
2023-02-07T21:10:15.089Z,98996.19
2023-02-07T21:12:41.470Z,99033.84
2023-02-07T21:15:08.311Z,99069.78
2023-02-07T21:17:36.667Z,99100.56
2023-02-07T21:20:03.666Z,99143.34
2023-02-07T21:22:30.312Z,99179.25
2023-02-07T21:24:56.660Z,99216.00
2023-02-07T21:27:23.002Z,99251.06
2023-02-07T21:29:49.385Z,99281.00
2023-02-07T21:32:15.736Z,99305.78
2023-02-07T21:34:42.229Z,99313.50
2023-02-07T21:37:08.739Z,99321.16
2023-02-07T21:39:35.147Z,99327.16
2023-02-07T21:42:01.586Z,99330.56
2023-02-07T21:44:29.331Z,99353.66
2023-02-07T21:46:57.141Z,99351.94
2023-02-07T21:49:24.037Z,99356.22
2023-02-07T21:51:53.319Z,99361.31
2023-02-07T21:54:19.695Z,99385.22
2023-02-07T21:56:46.157Z,99392.88
2023-02-07T21:59:17.403Z,99371.53
2023-02-07T22:01:44.401Z,99376.66
2023-02-07T22:04:10.980Z,99383.44
2023-02-07T22:06:38.433Z,99385.19
2023-02-07T22:09:05.380Z,99380.88
2023-02-07T22:11:34.693Z,99374.06
2023-02-07T22:14:01.266Z,99367.19
2023-02-07T22:16:28.662Z,99349.25
2023-02-07T22:18:55.946Z,99336.44
2023-02-07T22:21:26.740Z,99315.91
2023-02-07T22:23:53.718Z,99291.16
2023-02-07T22:26:20.261Z,99262.97
2023-02-07T22:28:46.854Z,99236.44
2023-02-07T22:31:15.655Z,99189.47
2023-02-07T22:33:42.461Z,99133.91
2023-02-07T22:36:16.225Z,99088.59
2023-02-07T22:38:42.699Z,99057.84
2023-02-07T22:41:09.130Z,99038.19
2023-02-07T22:43:35.813Z,99045.03
2023-02-07T22:46:06.429Z,99092.03
2023-02-07T22:48:32.919Z,99123.66
2023-02-07T22:51:00.242Z,99163.81
2023-02-07T22:53:26.924Z,99211.66
2023-02-07T22:55:53.314Z,99240.69
2023-02-07T22:58:19.929Z,99285.13
2023-02-07T23:00:46.341Z,99314.13
2023-02-07T23:03:12.761Z,99338.06
2023-02-07T23:05:39.596Z,99365.38
2023-02-07T23:08:06.571Z,99369.69
2023-02-07T23:10:32.972Z,99370.53
2023-02-07T23:12:59.971Z,99395.28
2023-02-07T23:15:26.323Z,99422.63
2023-02-07T23:17:52.687Z,99438.00
2023-02-07T23:20:19.085Z,99455.91
2023-02-07T23:22:45.457Z,99473.00
2023-02-07T23:25:11.933Z,99479.84
2023-02-07T23:27:38.528Z,99485.84
2023-02-07T23:30:05.403Z,99512.31
2023-02-07T23:32:31.833Z,99524.25
2023-02-07T23:34:58.200Z,99519.13
2023-02-07T23:37:24.612Z,99514.81
2023-02-07T23:39:51.032Z,99526.72
2023-02-07T23:42:17.429Z,99556.53
2023-02-07T23:44:43.817Z,99565.06
2023-02-07T23:47:10.180Z,99567.59
2023-02-07T23:49:36.630Z,99579.53
2023-02-07T23:52:03.007Z,99597.38
2023-02-07T23:54:29.345Z,99604.25
2023-02-07T23:56:55.905Z,99611.09
2023-02-07T23:59:22.290Z,99604.25
